sensor_id;sensor_type;location;lat;lon;timestamp;temperature;humidity
65207;SHT31;58477;48.072;11.970;2022-10-16T00:00:23;12.59;95.64
65207;SHT31;58477;48.072;11.970;2022-10-16T00:02:48;12.53;95.59
65207;SHT31;58477;48.072;11.970;2022-10-16T00:05:14;12.56;95.58
65207;SHT31;58477;48.072;11.970;2022-10-16T00:07:39;12.39;95.08
65207;SHT31;58477;48.072;11.970;2022-10-16T00:10:05;12.46;95.84
65207;SHT31;58477;48.072;11.970;2022-10-16T00:12:30;12.45;95.52
65207;SHT31;58477;48.072;11.970;2022-10-16T00:14:56;12.52;96.41
65207;SHT31;58477;48.072;11.970;2022-10-16T00:17:21;12.42;95.69
65207;SHT31;58477;48.072;11.970;2022-10-16T00:19:46;12.43;96.90
65207;SHT31;58477;48.072;11.970;2022-10-16T00:22:12;12.34;96.28
65207;SHT31;58477;48.072;11.970;2022-10-16T00:24:37;12.46;96.59
65207;SHT31;58477;48.072;11.970;2022-10-16T00:27:03;12.35;96.45
65207;SHT31;58477;48.072;11.970;2022-10-16T00:29:28;12.48;96.88
65207;SHT31;58477;48.072;11.970;2022-10-16T00:31:53;12.39;96.16
65207;SHT31;58477;48.072;11.970;2022-10-16T00:34:19;12.53;95.62
65207;SHT31;58477;48.072;11.970;2022-10-16T00:36:44;12.56;94.92
65207;SHT31;58477;48.072;11.970;2022-10-16T00:39:10;12.53;94.77
65207;SHT31;58477;48.072;11.970;2022-10-16T00:41:35;12.35;94.92
65207;SHT31;58477;48.072;11.970;2022-10-16T00:44:03;12.35;95.00
65207;SHT31;58477;48.072;11.970;2022-10-16T00:46:35;12.28;95.17
65207;SHT31;58477;48.072;11.970;2022-10-16T00:49:15;12.04;95.95
65207;SHT31;58477;48.072;11.970;2022-10-16T00:54:13;12.24;96.81
65207;SHT31;58477;48.072;11.970;2022-10-16T00:56:39;12.20;96.84
65207;SHT31;58477;48.072;11.970;2022-10-16T00:59:14;12.11;96.68
65207;SHT31;58477;48.072;11.970;2022-10-16T01:01:40;12.25;96.50
65207;SHT31;58477;48.072;11.970;2022-10-16T01:04:05;12.32;95.93
65207;SHT31;58477;48.072;11.970;2022-10-16T01:06:34;12.21;95.60
65207;SHT31;58477;48.072;11.970;2022-10-16T01:11:49;12.06;96.15
65207;SHT31;58477;48.072;11.970;2022-10-16T01:14:40;11.99;96.17
65207;SHT31;58477;48.072;11.970;2022-10-16T01:17:17;11.99;96.34
65207;SHT31;58477;48.072;11.970;2022-10-16T01:20:04;11.97;95.95
65207;SHT31;58477;48.072;11.970;2022-10-16T01:23:05;12.06;96.01
65207;SHT31;58477;48.072;11.970;2022-10-16T01:28:34;12.08;95.46
65207;SHT31;58477;48.072;11.970;2022-10-16T01:31:02;12.05;96.30
65207;SHT31;58477;48.072;11.970;2022-10-16T01:33:43;12.02;96.20
65207;SHT31;58477;48.072;11.970;2022-10-16T01:36:17;12.11;96.32
65207;SHT31;58477;48.072;11.970;2022-10-16T01:38:47;12.10;96.00
65207;SHT31;58477;48.072;11.970;2022-10-16T01:41:36;11.92;95.97
65207;SHT31;58477;48.072;11.970;2022-10-16T01:44:22;11.87;96.01
65207;SHT31;58477;48.072;11.970;2022-10-16T01:46:51;11.90;96.50
65207;SHT31;58477;48.072;11.970;2022-10-16T01:49:18;11.92;96.81
65207;SHT31;58477;48.072;11.970;2022-10-16T01:51:48;11.64;96.17
65207;SHT31;58477;48.072;11.970;2022-10-16T01:54:16;11.43;96.53
65207;SHT31;58477;48.072;11.970;2022-10-16T01:56:43;11.24;96.48
65207;SHT31;58477;48.072;11.970;2022-10-16T01:59:18;11.34;97.40
65207;SHT31;58477;48.072;11.970;2022-10-16T02:01:47;11.66;97.69
65207;SHT31;58477;48.072;11.970;2022-10-16T02:04:19;11.54;97.80
65207;SHT31;58477;48.072;11.970;2022-10-16T02:06:46;11.57;97.93
65207;SHT31;58477;48.072;11.970;2022-10-16T02:09:12;11.77;97.97
65207;SHT31;58477;48.072;11.970;2022-10-16T02:11:37;11.73;97.04
65207;SHT31;58477;48.072;11.970;2022-10-16T02:14:05;11.58;96.51
65207;SHT31;58477;48.072;11.970;2022-10-16T02:16:35;11.50;96.30
65207;SHT31;58477;48.072;11.970;2022-10-16T02:19:01;11.38;96.41
65207;SHT31;58477;48.072;11.970;2022-10-16T02:21:30;11.31;96.40
65207;SHT31;58477;48.072;11.970;2022-10-16T02:24:06;11.13;97.23
65207;SHT31;58477;48.072;11.970;2022-10-16T02:29:08;11.02;98.05
65207;SHT31;58477;48.072;11.970;2022-10-16T02:31:38;11.26;98.80
65207;SHT31;58477;48.072;11.970;2022-10-16T02:34:07;11.23;98.81
65207;SHT31;58477;48.072;11.970;2022-10-16T02:36:35;11.40;98.48
65207;SHT31;58477;48.072;11.970;2022-10-16T02:39:02;11.50;97.86
65207;SHT31;58477;48.072;11.970;2022-10-16T02:41:29;11.34;97.18
65207;SHT31;58477;48.072;11.970;2022-10-16T02:43:55;11.33;97.41
65207;SHT31;58477;48.072;11.970;2022-10-16T02:46:21;11.33;97.51
65207;SHT31;58477;48.072;11.970;2022-10-16T02:48:46;11.12;98.11
65207;SHT31;58477;48.072;11.970;2022-10-16T02:51:12;10.99;98.48
65207;SHT31;58477;48.072;11.970;2022-10-16T02:53:38;11.22;98.48
65207;SHT31;58477;48.072;11.970;2022-10-16T02:56:03;11.34;98.08
65207;SHT31;58477;48.072;11.970;2022-10-16T02:58:29;11.27;97.48
65207;SHT31;58477;48.072;11.970;2022-10-16T03:00:55;11.37;97.28
65207;SHT31;58477;48.072;11.970;2022-10-16T03:03:20;11.48;97.16
65207;SHT31;58477;48.072;11.970;2022-10-16T03:05:45;11.60;97.20
65207;SHT31;58477;48.072;11.970;2022-10-16T03:08:12;11.51;96.76
65207;SHT31;58477;48.072;11.970;2022-10-16T03:10:37;11.56;96.94
65207;SHT31;58477;48.072;11.970;2022-10-16T03:13:03;11.56;96.89
65207;SHT31;58477;48.072;11.970;2022-10-16T03:15:28;11.34;96.38
65207;SHT31;58477;48.072;11.970;2022-10-16T03:17:54;11.26;96.78
65207;SHT31;58477;48.072;11.970;2022-10-16T03:20:20;11.23;97.04
65207;SHT31;58477;48.072;11.970;2022-10-16T03:22:45;11.17;96.86
65207;SHT31;58477;48.072;11.970;2022-10-16T03:25:11;11.19;96.96
65207;SHT31;58477;48.072;11.970;2022-10-16T03:27:36;10.93;97.43
65207;SHT31;58477;48.072;11.970;2022-10-16T03:30:02;11.02;97.54
65207;SHT31;58477;48.072;11.970;2022-10-16T03:32:28;11.05;98.27
65207;SHT31;58477;48.072;11.970;2022-10-16T03:34:53;11.22;97.90
65207;SHT31;58477;48.072;11.970;2022-10-16T03:37:19;11.16;97.70
65207;SHT31;58477;48.072;11.970;2022-10-16T03:39:45;11.17;98.02
65207;SHT31;58477;48.072;11.970;2022-10-16T03:42:11;11.24;97.94
65207;SHT31;58477;48.072;11.970;2022-10-16T03:44:37;11.33;97.84
65207;SHT31;58477;48.072;11.970;2022-10-16T03:47:03;11.27;97.77
65207;SHT31;58477;48.072;11.970;2022-10-16T03:49:28;11.22;97.58
65207;SHT31;58477;48.072;11.970;2022-10-16T03:51:53;11.19;97.43
65207;SHT31;58477;48.072;11.970;2022-10-16T03:54:19;11.37;97.67
65207;SHT31;58477;48.072;11.970;2022-10-16T03:56:45;11.38;97.54
65207;SHT31;58477;48.072;11.970;2022-10-16T03:59:10;11.27;97.06
65207;SHT31;58477;48.072;11.970;2022-10-16T04:01:35;11.27;97.33
65207;SHT31;58477;48.072;11.970;2022-10-16T04:04:01;11.22;97.77
65207;SHT31;58477;48.072;11.970;2022-10-16T04:06:26;11.20;97.46
65207;SHT31;58477;48.072;11.970;2022-10-16T04:08:52;11.26;97.69
65207;SHT31;58477;48.072;11.970;2022-10-16T04:11:17;11.30;97.69
65207;SHT31;58477;48.072;11.970;2022-10-16T04:13:43;11.46;97.47
65207;SHT31;58477;48.072;11.970;2022-10-16T04:16:09;11.61;96.77
65207;SHT31;58477;48.072;11.970;2022-10-16T04:18:34;11.61;96.48
65207;SHT31;58477;48.072;11.970;2022-10-16T04:21:04;11.48;95.93
65207;SHT31;58477;48.072;11.970;2022-10-16T04:23:30;11.30;96.17
65207;SHT31;58477;48.072;11.970;2022-10-16T04:25:56;11.24;97.10
65207;SHT31;58477;48.072;11.970;2022-10-16T04:28:21;11.31;97.29
65207;SHT31;58477;48.072;11.970;2022-10-16T04:30:47;11.23;97.32
65207;SHT31;58477;48.072;11.970;2022-10-16T04:33:12;11.27;97.31
65207;SHT31;58477;48.072;11.970;2022-10-16T04:35:38;11.38;97.07
65207;SHT31;58477;48.072;11.970;2022-10-16T04:38:03;11.50;96.52
65207;SHT31;58477;48.072;11.970;2022-10-16T04:40:29;11.43;96.27
65207;SHT31;58477;48.072;11.970;2022-10-16T04:42:58;11.46;96.45
65207;SHT31;58477;48.072;11.970;2022-10-16T04:45:24;11.53;96.26
65207;SHT31;58477;48.072;11.970;2022-10-16T04:47:50;11.73;95.63
65207;SHT31;58477;48.072;11.970;2022-10-16T04:50:15;11.84;95.28
65207;SHT31;58477;48.072;11.970;2022-10-16T04:53:00;11.78;95.33
65207;SHT31;58477;48.072;11.970;2022-10-16T04:55:25;11.98;94.45
65207;SHT31;58477;48.072;11.970;2022-10-16T04:57:51;12.01;94.01
65207;SHT31;58477;48.072;11.970;2022-10-16T05:00:16;11.84;95.01
65207;SHT31;58477;48.072;11.970;2022-10-16T05:02:42;11.80;94.96
65207;SHT31;58477;48.072;11.970;2022-10-16T05:05:07;11.85;94.69
65207;SHT31;58477;48.072;11.970;2022-10-16T05:07:33;11.85;94.41
65207;SHT31;58477;48.072;11.970;2022-10-16T05:09:58;11.78;94.70
65207;SHT31;58477;48.072;11.970;2022-10-16T05:12:24;11.81;94.28
65207;SHT31;58477;48.072;11.970;2022-10-16T05:14:49;11.81;94.03
65207;SHT31;58477;48.072;11.970;2022-10-16T05:17:15;11.78;94.18
65207;SHT31;58477;48.072;11.970;2022-10-16T05:19:40;11.75;94.17
65207;SHT31;58477;48.072;11.970;2022-10-16T05:22:05;11.74;94.20
65207;SHT31;58477;48.072;11.970;2022-10-16T05:24:31;11.64;94.76
65207;SHT31;58477;48.072;11.970;2022-10-16T05:26:56;11.64;94.97
65207;SHT31;58477;48.072;11.970;2022-10-16T05:29:22;11.75;94.65
65207;SHT31;58477;48.072;11.970;2022-10-16T05:31:50;11.77;94.52
65207;SHT31;58477;48.072;11.970;2022-10-16T05:34:16;11.87;93.99
65207;SHT31;58477;48.072;11.970;2022-10-16T05:36:41;11.92;93.87
65207;SHT31;58477;48.072;11.970;2022-10-16T05:39:06;11.92;93.55
65207;SHT31;58477;48.072;11.970;2022-10-16T05:41:32;11.99;93.37
65207;SHT31;58477;48.072;11.970;2022-10-16T05:43:57;11.98;93.41
65207;SHT31;58477;48.072;11.970;2022-10-16T05:46:23;12.04;93.09
65207;SHT31;58477;48.072;11.970;2022-10-16T05:48:51;12.02;93.22
65207;SHT31;58477;48.072;11.970;2022-10-16T05:51:17;12.01;93.83
65207;SHT31;58477;48.072;11.970;2022-10-16T05:53:42;12.11;92.95
65207;SHT31;58477;48.072;11.970;2022-10-16T05:56:10;12.18;92.61
65207;SHT31;58477;48.072;11.970;2022-10-16T05:58:36;12.28;92.74
65207;SHT31;58477;48.072;11.970;2022-10-16T06:01:17;12.20;92.94
65207;SHT31;58477;48.072;11.970;2022-10-16T06:03:43;12.22;92.67
65207;SHT31;58477;48.072;11.970;2022-10-16T06:06:12;12.32;92.59
65207;SHT31;58477;48.072;11.970;2022-10-16T06:08:39;12.38;92.40
65207;SHT31;58477;48.072;11.970;2022-10-16T06:11:06;12.48;91.63
65207;SHT31;58477;48.072;11.970;2022-10-16T06:13:32;12.49;91.56
65207;SHT31;58477;48.072;11.970;2022-10-16T06:15:59;12.48;91.83
65207;SHT31;58477;48.072;11.970;2022-10-16T06:18:26;12.49;92.16
65207;SHT31;58477;48.072;11.970;2022-10-16T06:20:52;12.59;91.33
65207;SHT31;58477;48.072;11.970;2022-10-16T06:23:18;12.69;91.21
65207;SHT31;58477;48.072;11.970;2022-10-16T06:25:43;12.76;90.70
65207;SHT31;58477;48.072;11.970;2022-10-16T06:28:09;12.82;90.31
65207;SHT31;58477;48.072;11.970;2022-10-16T06:30:34;13.00;90.40
65207;SHT31;58477;48.072;11.970;2022-10-16T06:33:03;13.09;89.60
65207;SHT31;58477;48.072;11.970;2022-10-16T06:35:28;13.21;89.62
65207;SHT31;58477;48.072;11.970;2022-10-16T06:37:54;13.30;88.65
65207;SHT31;58477;48.072;11.970;2022-10-16T06:40:20;13.39;88.40
65207;SHT31;58477;48.072;11.970;2022-10-16T06:42:45;13.54;87.49
65207;SHT31;58477;48.072;11.970;2022-10-16T06:45:11;13.78;86.69
65207;SHT31;58477;48.072;11.970;2022-10-16T06:47:37;13.88;86.19
65207;SHT31;58477;48.072;11.970;2022-10-16T06:50:03;14.21;86.14
65207;SHT31;58477;48.072;11.970;2022-10-16T06:52:29;14.19;84.77
65207;SHT31;58477;48.072;11.970;2022-10-16T06:54:55;14.05;85.79
65207;SHT31;58477;48.072;11.970;2022-10-16T06:57:20;14.02;85.19
65207;SHT31;58477;48.072;11.970;2022-10-16T06:59:46;14.09;85.21
65207;SHT31;58477;48.072;11.970;2022-10-16T07:02:11;14.08;85.50
65207;SHT31;58477;48.072;11.970;2022-10-16T07:04:36;14.19;85.42
65207;SHT31;58477;48.072;11.970;2022-10-16T07:07:02;14.18;85.01
65207;SHT31;58477;48.072;11.970;2022-10-16T07:09:28;14.32;85.47
65207;SHT31;58477;48.072;11.970;2022-10-16T07:11:53;14.62;84.59
65207;SHT31;58477;48.072;11.970;2022-10-16T07:14:20;14.94;83.51
65207;SHT31;58477;48.072;11.970;2022-10-16T07:16:47;15.07;82.44
65207;SHT31;58477;48.072;11.970;2022-10-16T07:19:13;15.97;81.05
65207;SHT31;58477;48.072;11.970;2022-10-16T07:21:40;17.45;76.93
65207;SHT31;58477;48.072;11.970;2022-10-16T07:24:11;18.08;72.11
65207;SHT31;58477;48.072;11.970;2022-10-16T07:26:37;19.10;69.41
65207;SHT31;58477;48.072;11.970;2022-10-16T07:29:06;19.89;70.07
65207;SHT31;58477;48.072;11.970;2022-10-16T07:31:32;20.81;66.10
65207;SHT31;58477;48.072;11.970;2022-10-16T07:33:58;19.85;68.09
65207;SHT31;58477;48.072;11.970;2022-10-16T07:36:24;20.73;67.79
65207;SHT31;58477;48.072;11.970;2022-10-16T07:38:49;21.11;65.91
65207;SHT31;58477;48.072;11.970;2022-10-16T07:41:17;21.72;65.13
65207;SHT31;58477;48.072;11.970;2022-10-16T07:43:47;22.07;64.25
65207;SHT31;58477;48.072;11.970;2022-10-16T07:46:13;20.97;64.95
65207;SHT31;58477;48.072;11.970;2022-10-16T07:48:38;22.70;62.81
65207;SHT31;58477;48.072;11.970;2022-10-16T07:51:05;22.41;62.55
65207;SHT31;58477;48.072;11.970;2022-10-16T07:53:31;22.56;62.66
65207;SHT31;58477;48.072;11.970;2022-10-16T07:56:01;22.84;61.77
65207;SHT31;58477;48.072;11.970;2022-10-16T07:58:27;21.41;63.48
65207;SHT31;58477;48.072;11.970;2022-10-16T08:00:53;20.98;64.22
65207;SHT31;58477;48.072;11.970;2022-10-16T08:03:19;21.56;64.73
65207;SHT31;58477;48.072;11.970;2022-10-16T08:05:44;21.69;64.52
65207;SHT31;58477;48.072;11.970;2022-10-16T08:08:13;22.94;62.60
65207;SHT31;58477;48.072;11.970;2022-10-16T08:10:40;23.52;60.45
65207;SHT31;58477;48.072;11.970;2022-10-16T08:13:05;23.76;59.42
65207;SHT31;58477;48.072;11.970;2022-10-16T08:15:31;23.80;59.52
65207;SHT31;58477;48.072;11.970;2022-10-16T08:18:04;24.47;57.56
65207;SHT31;58477;48.072;11.970;2022-10-16T08:20:31;24.24;58.20
65207;SHT31;58477;48.072;11.970;2022-10-16T08:22:59;24.57;58.38
65207;SHT31;58477;48.072;11.970;2022-10-16T08:25:25;23.95;58.76
65207;SHT31;58477;48.072;11.970;2022-10-16T08:27:50;23.54;59.70
65207;SHT31;58477;48.072;11.970;2022-10-16T08:30:17;24.34;58.45
65207;SHT31;58477;48.072;11.970;2022-10-16T08:32:43;24.75;57.43
65207;SHT31;58477;48.072;11.970;2022-10-16T08:35:10;24.95;56.93
65207;SHT31;58477;48.072;11.970;2022-10-16T08:37:36;24.56;58.08
65207;SHT31;58477;48.072;11.970;2022-10-16T08:40:04;24.49;58.68
65207;SHT31;58477;48.072;11.970;2022-10-16T08:42:47;24.68;58.07
65207;SHT31;58477;48.072;11.970;2022-10-16T08:48:47;26.03;54.83
65207;SHT31;58477;48.072;11.970;2022-10-16T08:51:31;24.87;57.35
65207;SHT31;58477;48.072;11.970;2022-10-16T08:53:59;24.78;57.71
65207;SHT31;58477;48.072;11.970;2022-10-16T08:56:27;24.49;60.67
65207;SHT31;58477;48.072;11.970;2022-10-16T08:58:53;24.49;58.86
65207;SHT31;58477;48.072;11.970;2022-10-16T09:01:38;25.68;55.35
65207;SHT31;58477;48.072;11.970;2022-10-16T09:07:36;24.50;57.18
65207;SHT31;58477;48.072;11.970;2022-10-16T09:18:43;25.79;54.37
65207;SHT31;58477;48.072;11.970;2022-10-16T09:21:16;26.73;53.28
65207;SHT31;58477;48.072;11.970;2022-10-16T09:23:43;26.47;53.16
65207;SHT31;58477;48.072;11.970;2022-10-16T09:26:13;25.96;54.54
65207;SHT31;58477;48.072;11.970;2022-10-16T09:28:39;25.99;53.24
65207;SHT31;58477;48.072;11.970;2022-10-16T09:31:05;25.62;54.92
65207;SHT31;58477;48.072;11.970;2022-10-16T09:33:36;26.29;53.69
65207;SHT31;58477;48.072;11.970;2022-10-16T09:36:04;25.94;55.51
65207;SHT31;58477;48.072;11.970;2022-10-16T09:38:32;26.26;53.56
65207;SHT31;58477;48.072;11.970;2022-10-16T09:41:10;26.90;53.71
65207;SHT31;58477;48.072;11.970;2022-10-16T09:43:51;27.41;51.64
65207;SHT31;58477;48.072;11.970;2022-10-16T09:46:35;26.94;53.67
65207;SHT31;58477;48.072;11.970;2022-10-16T09:49:02;27.11;51.96
65207;SHT31;58477;48.072;11.970;2022-10-16T09:51:33;26.61;53.44
65207;SHT31;58477;48.072;11.970;2022-10-16T09:56:36;26.23;54.23
65207;SHT31;58477;48.072;11.970;2022-10-16T09:59:16;25.90;55.35
65207;SHT31;58477;48.072;11.970;2022-10-16T10:01:53;26.04;55.94
65207;SHT31;58477;48.072;11.970;2022-10-16T10:04:19;26.65;55.29
65207;SHT31;58477;48.072;11.970;2022-10-16T10:06:48;26.99;54.20
65207;SHT31;58477;48.072;11.970;2022-10-16T10:09:32;26.78;53.63
65207;SHT31;58477;48.072;11.970;2022-10-16T10:12:01;26.81;54.03
65207;SHT31;58477;48.072;11.970;2022-10-16T10:14:47;25.96;55.29
65207;SHT31;58477;48.072;11.970;2022-10-16T10:17:21;25.82;54.88
65207;SHT31;58477;48.072;11.970;2022-10-16T10:19:58;26.46;54.60
65207;SHT31;58477;48.072;11.970;2022-10-16T10:22:39;27.12;52.21
65207;SHT31;58477;48.072;11.970;2022-10-16T10:38:52;28.10;50.15
65207;SHT31;58477;48.072;11.970;2022-10-16T10:44:20;27.73;52.62
65207;SHT31;58477;48.072;11.970;2022-10-16T10:47:00;28.33;49.44
65207;SHT31;58477;48.072;11.970;2022-10-16T11:00:34;28.80;48.37
65207;SHT31;58477;48.072;11.970;2022-10-16T11:06:07;29.36;47.00
65207;SHT31;58477;48.072;11.970;2022-10-16T11:08:45;28.91;48.36
65207;SHT31;58477;48.072;11.970;2022-10-16T11:11:24;27.61;51.18
65207;SHT31;58477;48.072;11.970;2022-10-16T11:13:58;28.10;51.58
65207;SHT31;58477;48.072;11.970;2022-10-16T11:16:48;27.45;49.81
65207;SHT31;58477;48.072;11.970;2022-10-16T11:22:00;28.26;50.33
65207;SHT31;58477;48.072;11.970;2022-10-16T11:27:18;28.90;47.97
65207;SHT31;58477;48.072;11.970;2022-10-16T11:29:53;28.06;49.15
65207;SHT31;58477;48.072;11.970;2022-10-16T11:32:25;27.39;49.26
65207;SHT31;58477;48.072;11.970;2022-10-16T11:34:58;28.17;48.19
65207;SHT31;58477;48.072;11.970;2022-10-16T11:37:30;28.32;49.05
65207;SHT31;58477;48.072;11.970;2022-10-16T11:40:00;28.88;48.38
65207;SHT31;58477;48.072;11.970;2022-10-16T11:42:40;28.74;47.82
65207;SHT31;58477;48.072;11.970;2022-10-16T11:45:32;28.65;47.71
65207;SHT31;58477;48.072;11.970;2022-10-16T11:51:25;27.86;48.62
65207;SHT31;58477;48.072;11.970;2022-10-16T11:56:21;28.04;50.27
65207;SHT31;58477;48.072;11.970;2022-10-16T11:59:02;27.28;50.19
65207;SHT31;58477;48.072;11.970;2022-10-16T12:04:17;26.53;53.32
65207;SHT31;58477;48.072;11.970;2022-10-16T12:06:55;26.07;54.45
65207;SHT31;58477;48.072;11.970;2022-10-16T12:09:27;25.05;55.57
65207;SHT31;58477;48.072;11.970;2022-10-16T12:11:54;24.71;58.75
65207;SHT31;58477;48.072;11.970;2022-10-16T12:14:33;24.44;57.02
65207;SHT31;58477;48.072;11.970;2022-10-16T12:19:57;24.63;56.21
65207;SHT31;58477;48.072;11.970;2022-10-16T12:22:23;24.68;56.70
65207;SHT31;58477;48.072;11.970;2022-10-16T12:24:51;24.54;56.75
65207;SHT31;58477;48.072;11.970;2022-10-16T12:27:28;24.46;58.31
65207;SHT31;58477;48.072;11.970;2022-10-16T12:29:59;24.44;56.44
65207;SHT31;58477;48.072;11.970;2022-10-16T12:32:29;24.53;55.51
65207;SHT31;58477;48.072;11.970;2022-10-16T12:34:57;24.37;55.35
65207;SHT31;58477;48.072;11.970;2022-10-16T12:37:28;24.26;56.41
65207;SHT31;58477;48.072;11.970;2022-10-16T12:39:56;24.37;56.45
65207;SHT31;58477;48.072;11.970;2022-10-16T12:44:52;24.03;56.31
65207;SHT31;58477;48.072;11.970;2022-10-16T12:49:55;24.41;56.83
65207;SHT31;58477;48.072;11.970;2022-10-16T12:52:39;23.82;58.05
65207;SHT31;58477;48.072;11.970;2022-10-16T12:55:15;23.90;57.40
65207;SHT31;58477;48.072;11.970;2022-10-16T13:00:25;23.92;57.22
65207;SHT31;58477;48.072;11.970;2022-10-16T13:09:02;23.89;58.70
65207;SHT31;58477;48.072;11.970;2022-10-16T13:11:36;23.85;58.42
65207;SHT31;58477;48.072;11.970;2022-10-16T13:14:15;23.90;57.59
65207;SHT31;58477;48.072;11.970;2022-10-16T13:17:09;23.78;58.31
65207;SHT31;58477;48.072;11.970;2022-10-16T13:22:25;23.70;57.32
65207;SHT31;58477;48.072;11.970;2022-10-16T13:25:20;23.69;58.42
65207;SHT31;58477;48.072;11.970;2022-10-16T13:30:26;23.75;58.67
65207;SHT31;58477;48.072;11.970;2022-10-16T13:35:30;23.63;58.50
65207;SHT31;58477;48.072;11.970;2022-10-16T13:38:12;23.65;59.78
65207;SHT31;58477;48.072;11.970;2022-10-16T13:41:03;23.45;60.16
65207;SHT31;58477;48.072;11.970;2022-10-16T13:43:39;23.61;58.35
65207;SHT31;58477;48.072;11.970;2022-10-16T13:46:10;23.70;60.76
65207;SHT31;58477;48.072;11.970;2022-10-16T13:48:36;23.37;57.58
65207;SHT31;58477;48.072;11.970;2022-10-16T13:51:17;23.52;59.54
65207;SHT31;58477;48.072;11.970;2022-10-16T13:53:43;23.41;59.32
65207;SHT31;58477;48.072;11.970;2022-10-16T13:56:19;23.52;58.00
65207;SHT31;58477;48.072;11.970;2022-10-16T13:58:45;23.46;58.08
65207;SHT31;58477;48.072;11.970;2022-10-16T14:01:17;23.49;57.81
65207;SHT31;58477;48.072;11.970;2022-10-16T14:03:44;23.41;58.43
65207;SHT31;58477;48.072;11.970;2022-10-16T14:06:16;23.45;59.18
65207;SHT31;58477;48.072;11.970;2022-10-16T14:11:32;23.52;60.05
65207;SHT31;58477;48.072;11.970;2022-10-16T14:13:59;23.38;60.36
65207;SHT31;58477;48.072;11.970;2022-10-16T14:16:27;23.39;60.72
65207;SHT31;58477;48.072;11.970;2022-10-16T14:19:05;23.45;60.90
65207;SHT31;58477;48.072;11.970;2022-10-16T14:21:32;23.44;60.66
65207;SHT31;58477;48.072;11.970;2022-10-16T14:23:58;23.37;60.49
65207;SHT31;58477;48.072;11.970;2022-10-16T14:26:27;23.10;60.65
65207;SHT31;58477;48.072;11.970;2022-10-16T14:29:18;23.10;60.14
65207;SHT31;58477;48.072;11.970;2022-10-16T14:31:55;23.08;60.61
65207;SHT31;58477;48.072;11.970;2022-10-16T14:34:31;23.03;61.02
65207;SHT31;58477;48.072;11.970;2022-10-16T14:37:00;22.87;61.15
65207;SHT31;58477;48.072;11.970;2022-10-16T14:39:27;22.90;60.85
65207;SHT31;58477;48.072;11.970;2022-10-16T14:41:55;22.98;61.02
65207;SHT31;58477;48.072;11.970;2022-10-16T14:44:28;22.91;61.13
65207;SHT31;58477;48.072;11.970;2022-10-16T14:46:54;22.88;61.18
65207;SHT31;58477;48.072;11.970;2022-10-16T14:49:20;22.93;61.14
65207;SHT31;58477;48.072;11.970;2022-10-16T14:51:47;22.98;61.28
65207;SHT31;58477;48.072;11.970;2022-10-16T14:54:16;23.01;60.67
65207;SHT31;58477;48.072;11.970;2022-10-16T14:56:47;22.94;61.00
65207;SHT31;58477;48.072;11.970;2022-10-16T14:59:17;22.91;60.66
65207;SHT31;58477;48.072;11.970;2022-10-16T15:01:44;22.86;61.66
65207;SHT31;58477;48.072;11.970;2022-10-16T15:04:11;22.74;62.00
65207;SHT31;58477;48.072;11.970;2022-10-16T15:06:38;22.65;62.32
65207;SHT31;58477;48.072;11.970;2022-10-16T15:09:03;22.63;62.61
65207;SHT31;58477;48.072;11.970;2022-10-16T15:11:31;22.47;63.72
65207;SHT31;58477;48.072;11.970;2022-10-16T15:13:57;22.40;63.99
65207;SHT31;58477;48.072;11.970;2022-10-16T15:16:23;22.30;63.99
65207;SHT31;58477;48.072;11.970;2022-10-16T15:18:48;22.12;64.32
65207;SHT31;58477;48.072;11.970;2022-10-16T15:21:26;22.23;63.53
65207;SHT31;58477;48.072;11.970;2022-10-16T15:23:52;22.06;63.80
65207;SHT31;58477;48.072;11.970;2022-10-16T15:26:17;21.83;64.35
65207;SHT31;58477;48.072;11.970;2022-10-16T15:28:43;21.61;64.26
65207;SHT31;58477;48.072;11.970;2022-10-16T15:31:08;21.51;64.32
65207;SHT31;58477;48.072;11.970;2022-10-16T15:33:34;21.45;64.46
65207;SHT31;58477;48.072;11.970;2022-10-16T15:36:01;21.42;64.40
65207;SHT31;58477;48.072;11.970;2022-10-16T15:38:28;21.15;64.93
65207;SHT31;58477;48.072;11.970;2022-10-16T15:40:54;21.02;65.29
65207;SHT31;58477;48.072;11.970;2022-10-16T15:43:19;20.91;66.10
65207;SHT31;58477;48.072;11.970;2022-10-16T15:46:06;20.74;66.98
65207;SHT31;58477;48.072;11.970;2022-10-16T15:48:33;20.63;67.12
65207;SHT31;58477;48.072;11.970;2022-10-16T15:51:06;20.64;67.33
65207;SHT31;58477;48.072;11.970;2022-10-16T15:53:32;20.57;67.76
65207;SHT31;58477;48.072;11.970;2022-10-16T15:56:09;20.36;68.03
65207;SHT31;58477;48.072;11.970;2022-10-16T15:58:37;20.17;68.44
65207;SHT31;58477;48.072;11.970;2022-10-16T16:01:03;20.00;68.69
65207;SHT31;58477;48.072;11.970;2022-10-16T16:03:30;19.82;70.75
65207;SHT31;58477;48.072;11.970;2022-10-16T16:05:56;19.73;71.25
65207;SHT31;58477;48.072;11.970;2022-10-16T16:08:22;19.69;71.52
65207;SHT31;58477;48.072;11.970;2022-10-16T16:11:02;19.57;70.96
65207;SHT31;58477;48.072;11.970;2022-10-16T16:13:28;19.50;71.63
65207;SHT31;58477;48.072;11.970;2022-10-16T16:15:53;19.41;71.38
65207;SHT31;58477;48.072;11.970;2022-10-16T16:18:19;19.35;71.91
65207;SHT31;58477;48.072;11.970;2022-10-16T16:20:44;19.42;71.85
65207;SHT31;58477;48.072;11.970;2022-10-16T16:23:10;19.41;71.93
65207;SHT31;58477;48.072;11.970;2022-10-16T16:25:35;19.44;71.83
65207;SHT31;58477;48.072;11.970;2022-10-16T16:28:01;19.35;71.77
65207;SHT31;58477;48.072;11.970;2022-10-16T16:30:26;19.17;72.01
65207;SHT31;58477;48.072;11.970;2022-10-16T16:32:52;19.12;71.69
65207;SHT31;58477;48.072;11.970;2022-10-16T16:35:17;19.14;71.66
65207;SHT31;58477;48.072;11.970;2022-10-16T16:37:43;18.98;72.39
65207;SHT31;58477;48.072;11.970;2022-10-16T16:40:08;18.96;72.49
65207;SHT31;58477;48.072;11.970;2022-10-16T16:42:33;18.96;72.42
65207;SHT31;58477;48.072;11.970;2022-10-16T16:44:59;18.81;72.92
65207;SHT31;58477;48.072;11.970;2022-10-16T16:47:25;18.53;74.03
65207;SHT31;58477;48.072;11.970;2022-10-16T16:49:50;18.44;74.22
65207;SHT31;58477;48.072;11.970;2022-10-16T16:52:17;18.42;74.51
65207;SHT31;58477;48.072;11.970;2022-10-16T16:54:42;18.43;74.06
65207;SHT31;58477;48.072;11.970;2022-10-16T16:57:09;18.40;74.26
65207;SHT31;58477;48.072;11.970;2022-10-16T16:59:34;18.32;74.15
65207;SHT31;58477;48.072;11.970;2022-10-16T17:01:59;18.25;74.56
65207;SHT31;58477;48.072;11.970;2022-10-16T17:04:25;18.28;74.60
65207;SHT31;58477;48.072;11.970;2022-10-16T17:06:55;18.28;75.05